createdAt,value
2022-07-25T00:00:24.655Z,39.06
2022-07-25T00:02:27.015Z,39.10
2022-07-25T00:04:29.205Z,38.92
2022-07-25T00:06:31.138Z,39.58
2022-07-25T00:08:32.682Z,39.18
2022-07-25T00:10:34.298Z,39.38
2022-07-25T00:12:35.930Z,39.69
2022-07-25T00:14:37.709Z,39.19
2022-07-25T00:16:40.155Z,40.01
2022-07-25T00:18:42.239Z,39.73
2022-07-25T00:20:43.981Z,39.52
2022-07-25T00:22:45.875Z,39.61
2022-07-25T00:24:47.593Z,39.60
2022-07-25T00:26:49.335Z,40.08
2022-07-25T00:28:50.924Z,39.94
2022-07-25T00:30:52.805Z,39.74
2022-07-25T00:32:54.406Z,39.68
2022-07-25T00:34:56.158Z,40.03
2022-07-25T00:36:57.733Z,39.98
2022-07-25T00:38:59.560Z,39.92
2022-07-25T00:41:01.421Z,39.98
2022-07-25T00:43:03.685Z,40.26
2022-07-25T00:45:05.914Z,39.98
2022-07-25T00:47:07.678Z,40.38
2022-07-25T00:49:09.289Z,40.65
2022-07-25T00:51:12.036Z,40.24
2022-07-25T00:53:15.018Z,40.64
2022-07-25T00:55:16.805Z,40.51
2022-07-25T00:57:18.426Z,40.63
2022-07-25T00:59:20.050Z,40.85
2022-07-25T01:01:23.001Z,40.78
2022-07-25T01:03:24.735Z,40.90
2022-07-25T01:05:26.493Z,41.07
2022-07-25T01:07:28.494Z,41.13
2022-07-25T01:09:30.826Z,40.82
2022-07-25T01:11:32.460Z,40.85
2022-07-25T01:13:34.770Z,41.18
2022-07-25T01:15:36.632Z,41.30
2022-07-25T01:17:40.909Z,41.45
2022-07-25T01:19:42.431Z,41.33
2022-07-25T01:21:43.980Z,41.32
2022-07-25T01:23:45.652Z,41.21
2022-07-25T01:25:47.374Z,41.52
2022-07-25T01:27:54.884Z,41.49
2022-07-25T01:29:57.338Z,41.42
2022-07-25T01:31:58.893Z,41.49
2022-07-25T01:34:00.413Z,41.73
2022-07-25T01:36:02.059Z,41.71
2022-07-25T01:38:03.611Z,42.04
2022-07-25T01:40:09.114Z,41.89
2022-07-25T01:42:10.848Z,42.12
2022-07-25T01:44:12.496Z,42.04
2022-07-25T01:46:14.116Z,42.08
2022-07-25T01:48:15.697Z,42.12
2022-07-25T01:50:18.985Z,42.18
2022-07-25T01:52:20.600Z,42.31
2022-07-25T01:54:22.154Z,42.22
2022-07-25T01:56:24.211Z,42.05
2022-07-25T01:58:25.785Z,42.44
2022-07-25T02:00:28.156Z,42.54
2022-07-25T02:02:29.675Z,42.48
2022-07-25T02:04:31.485Z,42.46
2022-07-25T02:06:35.372Z,42.17
2022-07-25T02:08:36.940Z,42.89
2022-07-25T02:10:38.715Z,42.72
2022-07-25T02:12:40.291Z,42.73
2022-07-25T02:14:42.488Z,42.82
2022-07-25T02:16:44.071Z,43.01
2022-07-25T02:18:46.065Z,42.80
2022-07-25T02:20:49.397Z,42.62
2022-07-25T02:22:50.940Z,43.03
2022-07-25T02:24:52.589Z,43.12
2022-07-25T02:26:54.411Z,43.00
2022-07-25T02:28:55.899Z,42.84
2022-07-25T02:30:57.590Z,43.16
2022-07-25T02:33:00.176Z,43.05
2022-07-25T02:35:01.758Z,43.31
2022-07-25T02:37:03.507Z,43.30
2022-07-25T02:39:05.244Z,43.47
2022-07-25T02:41:07.385Z,43.11
2022-07-25T02:43:09.500Z,43.23
2022-07-25T02:45:11.245Z,43.60
2022-07-25T02:47:12.953Z,43.82
2022-07-25T02:49:14.713Z,43.65
2022-07-25T02:51:18.567Z,43.65
2022-07-25T02:53:34.174Z,43.60
2022-07-25T02:55:41.922Z,43.70
2022-07-25T02:57:43.760Z,43.80
2022-07-25T02:59:45.357Z,43.92
2022-07-25T03:01:47.055Z,43.84
2022-07-25T03:03:49.109Z,44.18
2022-07-25T03:05:50.856Z,44.06
2022-07-25T03:07:52.417Z,44.21
2022-07-25T03:09:53.921Z,43.96
2022-07-25T03:11:55.543Z,44.34
2022-07-25T03:13:58.025Z,44.10
2022-07-25T03:15:59.624Z,44.23
2022-07-25T03:18:01.443Z,44.18
2022-07-25T03:20:04.684Z,44.27
2022-07-25T03:22:06.437Z,44.30
2022-07-25T03:24:08.337Z,44.41
2022-07-25T03:26:10.316Z,44.43
2022-07-25T03:28:11.839Z,44.18
2022-07-25T03:30:13.509Z,44.82
2022-07-25T03:32:15.272Z,44.44
2022-07-25T03:34:16.988Z,44.80
2022-07-25T03:36:19.428Z,44.87
2022-07-25T03:38:21.021Z,44.85
2022-07-25T03:40:22.660Z,44.88
2022-07-25T03:42:26.704Z,44.91
2022-07-25T03:44:28.512Z,44.99
2022-07-25T03:46:30.225Z,44.93
2022-07-25T03:48:31.990Z,45.00
2022-07-25T03:50:33.851Z,44.88
2022-07-25T03:52:35.790Z,44.95
2022-07-25T03:54:37.332Z,45.40
2022-07-25T03:56:44.711Z,45.32
2022-07-25T03:58:46.215Z,45.24
2022-07-25T04:00:48.810Z,45.29
2022-07-25T04:02:50.836Z,45.35
2022-07-25T04:04:52.341Z,45.03
2022-07-25T04:06:54.182Z,45.52
2022-07-25T04:08:56.158Z,45.25
2022-07-25T04:10:57.766Z,45.42
2022-07-25T04:12:59.366Z,45.42
2022-07-25T04:15:01.226Z,45.34
2022-07-25T04:17:03.336Z,45.53
2022-07-25T04:19:05.659Z,45.62
2022-07-25T04:21:09.031Z,45.71
2022-07-25T04:23:10.900Z,45.66
2022-07-25T04:25:12.525Z,45.76
2022-07-25T04:27:14.205Z,45.84
2022-07-25T04:29:16.184Z,45.88
2022-07-25T04:31:18.128Z,45.70
2022-07-25T04:33:20.951Z,45.81
2022-07-25T04:35:22.883Z,45.79
2022-07-25T04:37:24.567Z,45.78
2022-07-25T04:39:26.171Z,45.73
2022-07-25T04:41:27.862Z,45.96
2022-07-25T04:43:29.547Z,45.81
2022-07-25T04:45:32.810Z,46.16
2022-07-25T04:47:34.712Z,45.67
2022-07-25T04:49:36.953Z,45.86
2022-07-25T04:51:38.588Z,45.70
2022-07-25T04:53:40.165Z,46.00
2022-07-25T04:55:41.713Z,46.03
2022-07-25T04:57:43.382Z,46.21
2022-07-25T04:59:45.057Z,46.20
2022-07-25T05:01:46.815Z,46.22
2022-07-25T05:03:50.309Z,46.28
2022-07-25T05:05:52.307Z,46.49
2022-07-25T05:07:59.015Z,47.00
2022-07-25T05:10:00.975Z,46.25
2022-07-25T05:12:02.936Z,46.55
2022-07-25T05:14:04.906Z,46.41
2022-07-25T05:16:07.275Z,46.71
2022-07-25T05:18:09.093Z,46.59
2022-07-25T05:20:12.274Z,46.66
2022-07-25T05:22:14.413Z,46.82
2022-07-25T05:24:16.229Z,46.85
2022-07-25T05:26:18.057Z,46.90
2022-07-25T05:28:19.901Z,46.70
2022-07-25T05:30:21.730Z,46.73
2022-07-25T05:32:23.414Z,46.97
2022-07-25T05:34:25.148Z,47.29
2022-07-25T05:36:26.831Z,47.13
2022-07-25T05:38:28.310Z,47.14
2022-07-25T05:40:30.070Z,47.03
2022-07-25T05:42:33.055Z,47.01
2022-07-25T05:44:34.724Z,46.51
2022-07-25T05:46:36.465Z,46.62
2022-07-25T05:48:38.113Z,46.83
2022-07-25T05:50:40.686Z,46.32
2022-07-25T05:52:42.791Z,46.03
2022-07-25T05:54:44.390Z,45.81
2022-07-25T05:56:46.135Z,46.13
2022-07-25T05:58:48.008Z,45.66
2022-07-25T06:00:51.094Z,45.33
2022-07-25T06:02:53.355Z,45.35
2022-07-25T06:04:55.143Z,45.64
2022-07-25T06:06:56.933Z,45.17
2022-07-25T06:08:58.891Z,44.94
2022-07-25T06:11:03.872Z,45.26
2022-07-25T06:13:06.622Z,44.62
2022-07-25T06:15:12.633Z,44.52
2022-07-25T06:17:26.902Z,44.79
2022-07-25T06:19:31.028Z,44.27
2022-07-25T06:21:32.648Z,44.30
2022-07-25T06:23:34.273Z,44.22
2022-07-25T06:25:36.370Z,44.19
2022-07-25T06:27:38.926Z,44.20
2022-07-25T06:29:40.493Z,43.70
2022-07-25T06:31:42.574Z,43.74
2022-07-25T06:33:48.893Z,43.57
2022-07-25T06:35:50.574Z,43.52
2022-07-25T06:37:52.355Z,43.20
2022-07-25T06:39:53.854Z,42.72
2022-07-25T06:41:55.552Z,42.51
2022-07-25T06:43:57.105Z,42.25
2022-07-25T06:45:58.653Z,41.75
2022-07-25T06:48:00.304Z,41.68
2022-07-25T06:50:02.386Z,41.59
2022-07-25T06:52:04.769Z,41.25
2022-07-25T06:54:06.784Z,41.10
2022-07-25T06:56:09.892Z,41.14
2022-07-25T06:58:13.701Z,40.67
2022-07-25T07:00:15.869Z,40.42
2022-07-25T07:02:18.017Z,40.74
2022-07-25T07:04:19.989Z,39.96
2022-07-25T07:06:21.570Z,40.10
2022-07-25T07:08:23.687Z,39.76
2022-07-25T07:10:25.944Z,39.78
2022-07-25T07:12:27.713Z,39.10
2022-07-25T07:14:30.024Z,38.95
2022-07-25T07:16:32.380Z,38.92
2022-07-25T07:18:34.476Z,39.01
2022-07-25T07:20:36.097Z,38.75
2022-07-25T07:22:45.156Z,38.38
2022-07-25T07:24:49.201Z,38.47
2022-07-25T07:26:51.948Z,37.92
2022-07-25T07:28:55.377Z,38.04
2022-07-25T07:33:19.080Z,37.76
2022-07-25T07:35:20.910Z,38.08
2022-07-25T07:37:22.562Z,37.33
2022-07-25T07:39:24.182Z,37.39
2022-07-25T07:41:26.145Z,37.05
2022-07-25T07:43:31.968Z,36.78
2022-07-25T07:45:33.848Z,36.89
2022-07-25T07:47:35.561Z,36.72
2022-07-25T07:49:37.360Z,36.46
2022-07-25T07:51:39.129Z,36.50
2022-07-25T07:53:59.431Z,36.43
2022-07-25T07:56:00.982Z,36.08
2022-07-25T07:58:02.849Z,36.06
2022-07-25T08:00:05.639Z,35.48
2022-07-25T08:02:14.288Z,35.57
2022-07-25T08:04:16.360Z,35.51
2022-07-25T08:06:18.359Z,35.40
2022-07-25T08:08:20.507Z,35.31
2022-07-25T08:10:24.829Z,35.10
2022-07-25T08:12:26.448Z,34.87
2022-07-25T08:14:28.339Z,34.52
2022-07-25T08:16:30.074Z,34.43
2022-07-25T08:18:33.119Z,34.26
2022-07-25T08:20:38.335Z,33.84
2022-07-25T08:22:46.456Z,33.65
2022-07-25T08:24:48.142Z,33.96
2022-07-25T08:26:49.737Z,33.40
2022-07-25T08:29:04.989Z,33.49
2022-07-25T08:31:13.107Z,33.49
2022-07-25T08:33:16.202Z,33.03
2022-07-25T08:35:19.565Z,33.20
2022-07-25T08:37:21.465Z,32.66
2022-07-25T08:39:23.226Z,32.89
2022-07-25T08:41:25.234Z,32.76
2022-07-25T08:43:27.215Z,32.66
2022-07-25T08:45:29.055Z,32.37
2022-07-25T08:47:30.934Z,32.41
2022-07-25T08:49:32.974Z,32.07
2022-07-25T08:51:34.994Z,31.76
2022-07-25T08:53:37.219Z,31.79
2022-07-25T08:55:39.708Z,31.90
2022-07-25T08:57:43.852Z,31.25
2022-07-25T08:59:45.523Z,31.61
2022-07-25T09:01:47.241Z,31.74
2022-07-25T09:03:51.457Z,30.90
2022-07-25T09:05:53.287Z,30.97
2022-07-25T09:07:56.458Z,30.58
2022-07-25T09:09:58.717Z,30.21
2022-07-25T09:12:00.748Z,30.67
2022-07-25T09:14:08.316Z,30.30
2022-07-25T09:16:10.736Z,30.46
2022-07-25T09:18:15.934Z,29.82
2022-07-25T09:20:19.527Z,29.43
2022-07-25T09:22:21.251Z,29.46
2022-07-25T09:24:22.986Z,29.68
2022-07-25T09:26:24.730Z,29.51
2022-07-25T09:28:29.453Z,29.59
2022-07-25T09:30:31.249Z,29.63
2022-07-25T09:32:32.795Z,29.63
2022-07-25T09:34:39.838Z,28.85
2022-07-25T09:37:02.610Z,28.79
2022-07-25T09:39:05.640Z,28.81
2022-07-25T09:41:07.975Z,28.90
2022-07-25T09:43:09.960Z,28.92
2022-07-25T09:45:13.434Z,28.98
2022-07-25T09:47:16.445Z,29.08
2022-07-25T09:49:19.267Z,29.08
2022-07-25T09:51:21.234Z,28.84
2022-07-25T09:53:23.157Z,29.63
2022-07-25T09:55:25.126Z,29.21
2022-07-25T09:57:27.403Z,29.12
2022-07-25T09:59:29.016Z,29.20
2022-07-25T10:01:48.444Z,28.73
2022-07-25T10:04:15.639Z,28.92
2022-07-25T10:06:22.105Z,28.71
2022-07-25T10:08:24.667Z,28.53
2022-07-25T10:10:30.592Z,28.92
2022-07-25T10:12:32.506Z,28.11
2022-07-25T10:14:35.589Z,28.22
2022-07-25T10:16:46.767Z,27.92
2022-07-25T10:18:55.924Z,28.08
2022-07-25T10:21:28.651Z,27.96
2022-07-25T10:23:30.836Z,28.06
2022-07-25T10:25:33.253Z,27.69
2022-07-25T10:27:44.620Z,27.33
2022-07-25T10:29:52.660Z,27.91
2022-07-25T10:32:05.293Z,27.90
2022-07-25T10:34:10.286Z,28.13
2022-07-25T10:36:12.610Z,27.81
2022-07-25T10:38:14.315Z,27.72
2022-07-25T10:40:32.221Z,25.47
2022-07-25T10:42:34.416Z,25.70
2022-07-25T10:44:42.143Z,25.33
2022-07-25T10:46:45.069Z,25.57
2022-07-25T10:48:57.668Z,25.25
2022-07-25T10:50:59.492Z,25.29
2022-07-25T10:53:01.698Z,25.48
2022-07-25T10:55:03.483Z,25.63
2022-07-25T10:57:13.765Z,25.05
2022-07-25T10:59:30.300Z,24.88
2022-07-25T11:01:35.628Z,25.56
2022-07-25T11:03:37.489Z,25.47
2022-07-25T11:05:54.621Z,25.08
2022-07-25T11:08:20.675Z,25.32
2022-07-25T11:10:26.174Z,25.26
2022-07-25T11:12:28.177Z,25.13
2022-07-25T11:14:33.251Z,25.62
2022-07-25T11:16:35.166Z,25.59
2022-07-25T11:18:41.601Z,24.97
2022-07-25T11:20:43.256Z,25.08
2022-07-25T11:22:52.329Z,23.97
2022-07-25T11:24:54.201Z,24.38
2022-07-25T11:26:55.794Z,24.65
2022-07-25T11:28:57.504Z,24.22
2022-07-25T11:31:04.604Z,24.08
2022-07-25T11:33:06.447Z,24.32
2022-07-25T11:35:10.003Z,24.79
2022-07-25T11:37:15.070Z,24.39
2022-07-25T11:39:18.975Z,24.70
2022-07-25T11:41:30.919Z,24.15
2022-07-25T11:43:33.044Z,23.99
2022-07-25T11:45:34.912Z,23.84
2022-07-25T11:47:37.123Z,23.79
2022-07-25T11:49:51.181Z,23.50
2022-07-25T11:51:52.964Z,23.78
2022-07-25T11:53:54.482Z,24.29
2022-07-25T11:55:56.397Z,23.98
2022-07-25T11:58:01.293Z,23.46
2022-07-25T12:00:23.473Z,23.38
2022-07-25T12:02:32.635Z,23.50
2022-07-25T12:04:34.279Z,23.58
2022-07-25T12:06:36.189Z,23.57
2022-07-25T12:08:42.765Z,23.76
2022-07-25T12:10:47.644Z,23.30
2022-07-25T12:13:04.114Z,23.15
2022-07-25T12:15:05.995Z,22.66
2022-07-25T12:17:07.648Z,22.76
2022-07-25T12:19:18.172Z,22.42
2022-07-25T12:21:19.697Z,22.51
2022-07-25T12:23:21.990Z,22.52
2022-07-25T12:25:28.879Z,22.69
2022-07-25T12:27:32.400Z,22.64
2022-07-25T12:29:34.235Z,22.70
2022-07-25T12:31:36.459Z,22.98
2022-07-25T12:33:38.483Z,22.89
2022-07-25T12:35:41.746Z,23.25
2022-07-25T12:37:44.571Z,23.12
2022-07-25T12:39:46.450Z,23.15
2022-07-25T12:41:48.022Z,22.87
2022-07-25T12:43:49.818Z,22.84
2022-07-25T12:45:51.645Z,22.55
2022-07-25T12:47:53.723Z,22.09
2022-07-25T12:49:56.299Z,22.16
2022-07-25T12:51:58.422Z,22.53
2022-07-25T12:54:00.088Z,22.16
2022-07-25T12:56:04.437Z,22.14
2022-07-25T12:58:06.400Z,22.27
2022-07-25T13:00:11.494Z,22.08
2022-07-25T13:02:16.508Z,21.97
2022-07-25T13:04:18.207Z,22.19
2022-07-25T13:06:21.006Z,22.50
2022-07-25T13:08:22.735Z,22.30
2022-07-25T13:10:24.460Z,22.24
2022-07-25T13:12:26.204Z,22.60
2022-07-25T13:14:27.972Z,22.37
2022-07-25T13:16:29.904Z,22.49
2022-07-25T13:18:31.791Z,22.16
2022-07-25T13:20:36.008Z,21.87
2022-07-25T13:22:37.911Z,22.01
2022-07-25T13:24:39.471Z,21.85
2022-07-25T13:26:41.126Z,21.23
2022-07-25T13:28:45.605Z,21.24
2022-07-25T13:30:47.768Z,21.56
2022-07-25T13:32:49.468Z,21.78
2022-07-25T13:34:50.930Z,21.77
2022-07-25T13:36:52.722Z,21.09
2022-07-25T13:38:54.296Z,21.10
2022-07-25T13:40:59.078Z,21.17
2022-07-25T13:43:01.284Z,21.04
2022-07-25T13:45:03.551Z,21.29
2022-07-25T13:47:05.527Z,21.30
2022-07-25T13:49:07.722Z,21.05
2022-07-25T13:51:09.552Z,20.93
2022-07-25T13:53:11.313Z,20.72
2022-07-25T13:55:12.835Z,20.85
2022-07-25T13:57:14.592Z,21.04
2022-07-25T13:59:21.215Z,21.21
2022-07-25T14:01:25.377Z,21.05
2022-07-25T14:03:27.118Z,21.07
2022-07-25T14:05:28.808Z,21.07
2022-07-25T14:07:30.627Z,21.17
2022-07-25T14:09:32.303Z,21.15
2022-07-25T14:11:34.101Z,21.12
2022-07-25T14:13:38.649Z,20.95
2022-07-25T14:15:40.488Z,20.86
2022-07-25T14:17:42.258Z,21.40
2022-07-25T14:19:44.782Z,20.93
2022-07-25T14:21:49.401Z,21.33
2022-07-25T14:23:51.432Z,21.19
2022-07-25T14:25:53.580Z,21.44
2022-07-25T14:27:55.486Z,21.64
2022-07-25T14:29:57.536Z,21.71
2022-07-25T14:31:59.380Z,21.03
2022-07-25T14:34:01.105Z,21.75
2022-07-25T14:36:05.798Z,21.46
2022-07-25T14:38:07.476Z,21.54
2022-07-25T14:40:11.106Z,21.46
2022-07-25T14:42:13.378Z,21.34
2022-07-25T14:44:15.098Z,21.03
2022-07-25T14:46:17.257Z,21.12
2022-07-25T14:48:21.241Z,21.31
2022-07-25T14:50:23.331Z,21.42
2022-07-25T14:52:27.977Z,21.86
2022-07-25T14:54:29.651Z,21.57
2022-07-25T14:56:31.436Z,21.74
2022-07-25T14:58:33.657Z,21.66
2022-07-25T15:00:35.538Z,21.98
2022-07-25T15:02:37.255Z,21.92
2022-07-25T15:04:40.775Z,22.03
2022-07-25T15:06:42.378Z,22.01
2022-07-25T15:08:44.895Z,22.16
2022-07-25T15:10:47.023Z,22.13
2022-07-25T15:12:54.318Z,22.41
2022-07-25T15:15:04.600Z,22.37
2022-07-25T15:17:06.250Z,22.49
2022-07-25T15:19:26.078Z,22.42
2022-07-25T15:21:28.210Z,22.44
2022-07-25T15:23:30.717Z,22.44
2022-07-25T15:26:00.676Z,22.34
2022-07-25T15:27:54.168Z,22.29
2022-07-25T15:29:56.002Z,22.73
2022-07-25T15:31:57.776Z,22.78
2022-07-25T15:33:59.425Z,22.76
2022-07-25T15:36:01.623Z,22.63
2022-07-25T15:38:03.984Z,22.97
2022-07-25T15:40:07.182Z,23.02
2022-07-25T15:42:09.238Z,23.24
2022-07-25T15:44:10.881Z,22.98
2022-07-25T15:46:13.304Z,22.99
2022-07-25T15:48:16.263Z,23.31
2022-07-25T15:50:21.077Z,23.37
2022-07-25T15:52:24.901Z,23.33
2022-07-25T15:54:29.586Z,23.42
2022-07-25T15:56:31.518Z,23.42
2022-07-25T15:58:33.104Z,23.28
2022-07-25T16:00:34.874Z,23.24
2022-07-25T16:02:36.555Z,23.33
2022-07-25T16:04:38.948Z,23.45
2022-07-25T16:06:40.734Z,23.58
2022-07-25T16:08:44.864Z,23.37
2022-07-25T16:10:58.760Z,23.40
2022-07-25T16:13:01.031Z,23.79
2022-07-25T16:15:03.149Z,23.80
2022-07-25T16:17:05.781Z,23.50
2022-07-25T16:19:08.802Z,23.64
2022-07-25T16:21:10.771Z,23.89
2022-07-25T16:23:13.914Z,23.65
2022-07-25T16:25:15.914Z,23.71
2022-07-25T16:27:17.635Z,23.62
2022-07-25T16:29:21.847Z,23.51
2022-07-25T16:31:23.689Z,23.34
2022-07-25T16:33:25.538Z,23.93
2022-07-25T16:35:27.252Z,23.70
2022-07-25T16:37:29.037Z,23.77
2022-07-25T16:39:30.667Z,24.35
2022-07-25T16:41:32.566Z,24.12
2022-07-25T16:43:34.265Z,24.36
2022-07-25T16:45:36.484Z,24.24
2022-07-25T16:47:42.656Z,24.32
2022-07-25T16:49:44.569Z,24.27
2022-07-25T16:51:46.586Z,23.84
2022-07-25T16:53:48.629Z,24.60
2022-07-25T16:55:54.041Z,24.30
2022-07-25T16:57:55.837Z,24.64
2022-07-25T16:59:57.683Z,24.61
2022-07-25T17:02:00.167Z,24.72
2022-07-25T17:04:02.470Z,24.82
2022-07-25T17:06:04.449Z,24.73
2022-07-25T17:08:06.062Z,24.97
2022-07-25T17:10:08.669Z,24.62
2022-07-25T17:12:10.324Z,24.87
2022-07-25T17:14:12.247Z,25.31
2022-07-25T17:16:14.176Z,25.14
2022-07-25T17:18:16.099Z,25.17
2022-07-25T17:20:18.676Z,25.30
2022-07-25T17:22:20.608Z,25.17
2022-07-25T17:24:22.108Z,25.37
2022-07-25T17:26:23.929Z,25.39
2022-07-25T17:28:25.987Z,25.32
2022-07-25T17:30:27.607Z,25.12
2022-07-25T17:32:30.231Z,25.30
2022-07-25T17:34:31.908Z,25.79
2022-07-25T17:36:33.970Z,25.61
2022-07-25T17:38:36.989Z,25.34
2022-07-25T17:40:39.089Z,25.67
2022-07-25T17:42:45.115Z,25.41
2022-07-25T17:44:47.305Z,25.81
2022-07-25T17:46:50.443Z,25.77
2022-07-25T17:48:52.233Z,25.98
2022-07-25T17:50:55.007Z,25.73
2022-07-25T17:52:59.676Z,25.58
2022-07-25T17:55:03.923Z,25.86
2022-07-25T17:57:06.218Z,26.24
2022-07-25T17:59:08.731Z,26.20
2022-07-25T18:01:10.808Z,26.53
2022-07-25T18:03:12.837Z,26.02
2022-07-25T18:05:14.738Z,26.17
2022-07-25T18:07:16.750Z,26.27
2022-07-25T18:09:20.304Z,26.57
2022-07-25T18:11:22.201Z,26.34
2022-07-25T18:13:23.888Z,26.45
2022-07-25T18:15:25.941Z,26.75
2022-07-25T18:17:27.844Z,26.26
2022-07-25T18:19:29.550Z,26.64
2022-07-25T18:21:31.234Z,26.66
2022-07-25T18:23:35.008Z,26.72
2022-07-25T18:25:38.150Z,26.63
2022-07-25T18:27:46.160Z,26.96
2022-07-25T18:29:47.772Z,26.51
2022-07-25T18:31:50.425Z,26.92
2022-07-25T18:33:52.173Z,26.67
2022-07-25T18:35:54.282Z,26.95
2022-07-25T18:37:55.845Z,26.71
2022-07-25T18:39:57.433Z,26.91
2022-07-25T18:41:59.064Z,27.15
2022-07-25T18:44:03.225Z,27.09
2022-07-25T18:46:05.015Z,27.13
2022-07-25T18:48:08.319Z,26.89
2022-07-25T18:50:10.727Z,27.21
2022-07-25T18:52:12.473Z,27.10
2022-07-25T18:54:14.326Z,27.46
2022-07-25T18:56:16.759Z,28.00
2022-07-25T18:58:18.617Z,27.91
2022-07-25T19:00:20.753Z,28.24
2022-07-25T19:02:22.567Z,28.25
2022-07-25T19:04:24.122Z,28.48
2022-07-25T19:06:26.095Z,28.78
2022-07-25T19:08:27.974Z,28.64
2022-07-25T19:10:29.747Z,28.49
2022-07-25T19:12:31.777Z,28.61
2022-07-25T19:14:33.576Z,28.56
2022-07-25T19:16:35.373Z,28.74
2022-07-25T19:18:37.300Z,29.12
2022-07-25T19:20:39.490Z,28.93
2022-07-25T19:22:41.405Z,29.19
2022-07-25T19:24:43.629Z,28.95
2022-07-25T19:26:48.242Z,29.19
2022-07-25T19:28:51.215Z,29.53
2022-07-25T19:30:52.997Z,29.34
2022-07-25T19:32:54.580Z,29.40
2022-07-25T19:34:56.238Z,29.37
2022-07-25T19:36:59.292Z,29.59
2022-07-25T19:39:01.358Z,29.75
2022-07-25T19:41:03.182Z,30.36
2022-07-25T19:43:04.933Z,29.63
2022-07-25T19:45:07.100Z,29.80
2022-07-25T19:47:11.856Z,29.64
2022-07-25T19:49:13.800Z,30.07
2022-07-25T19:51:15.637Z,30.22
2022-07-25T19:53:17.350Z,30.23
2022-07-25T19:55:18.892Z,30.11
2022-07-25T19:57:20.503Z,29.97
2022-07-25T19:59:22.062Z,30.27
2022-07-25T20:01:23.844Z,30.54
2022-07-25T20:03:25.448Z,30.59
2022-07-25T20:05:27.240Z,30.70
2022-07-25T20:07:30.328Z,30.99
2022-07-25T20:09:33.584Z,31.11
2022-07-25T20:11:38.212Z,31.07
2022-07-25T20:13:40.108Z,31.73
2022-07-25T20:15:41.662Z,31.44
2022-07-25T20:17:43.556Z,31.70
2022-07-25T20:19:45.158Z,31.58
2022-07-25T20:21:47.344Z,31.31
2022-07-25T20:23:49.328Z,31.09
2022-07-25T20:25:51.284Z,31.84
2022-07-25T20:27:53.084Z,31.83
2022-07-25T20:29:54.792Z,31.71
2022-07-25T20:31:56.681Z,31.41
2022-07-25T20:33:58.230Z,31.22
2022-07-25T20:36:00.244Z,31.72
2022-07-25T20:38:09.301Z,31.57
2022-07-25T20:40:12.130Z,31.98
2022-07-25T20:42:13.906Z,31.58
2022-07-25T20:44:15.606Z,31.60
2022-07-25T20:46:17.177Z,31.82
2022-07-25T20:48:19.006Z,31.55
2022-07-25T20:50:20.837Z,31.27
2022-07-25T20:52:22.510Z,31.36
2022-07-25T20:54:24.184Z,31.60
2022-07-25T20:56:25.790Z,32.04
2022-07-25T20:58:27.442Z,31.55
2022-07-25T21:00:30.558Z,31.68
2022-07-25T21:02:33.400Z,31.96
2022-07-25T21:04:35.310Z,31.60
2022-07-25T21:06:37.163Z,31.65
2022-07-25T21:08:39.130Z,32.21
2022-07-25T21:10:40.923Z,32.27
2022-07-25T21:12:42.828Z,32.26
2022-07-25T21:14:44.372Z,32.37
2022-07-25T21:16:45.977Z,32.08
2022-07-25T21:18:47.948Z,32.00
2022-07-25T21:20:49.531Z,32.56
2022-07-25T21:22:51.478Z,32.34
2022-07-25T21:24:53.771Z,32.71
2022-07-25T21:26:55.298Z,32.40
2022-07-25T21:28:56.986Z,32.40
2022-07-25T21:30:58.807Z,32.85
2022-07-25T21:33:00.373Z,33.10
2022-07-25T21:35:02.117Z,33.14
2022-07-25T21:37:03.686Z,33.13
2022-07-25T21:39:05.467Z,32.77
2022-07-25T21:41:07.600Z,33.04
2022-07-25T21:43:13.007Z,32.80
2022-07-25T21:45:14.966Z,33.07
2022-07-25T21:47:16.903Z,33.51
2022-07-25T21:49:42.034Z,33.34
2022-07-25T21:51:44.681Z,33.52
2022-07-25T21:53:47.822Z,33.25
2022-07-25T21:55:49.374Z,33.78
2022-07-25T21:57:51.545Z,33.53
2022-07-25T21:59:53.287Z,33.38
2022-07-25T22:01:54.716Z,33.64
2022-07-25T22:03:56.363Z,33.89
2022-07-25T22:05:57.953Z,33.71
2022-07-25T22:07:59.563Z,34.22
2022-07-25T22:10:01.211Z,33.65
2022-07-25T22:12:02.720Z,34.13
2022-07-25T22:14:04.671Z,33.88
2022-07-25T22:16:06.597Z,33.87
2022-07-25T22:18:08.812Z,33.89
2022-07-25T22:20:11.008Z,34.05
2022-07-25T22:22:12.828Z,33.92
2022-07-25T22:24:14.573Z,33.76
2022-07-25T22:26:16.164Z,33.81
2022-07-25T22:28:17.724Z,33.95
2022-07-25T22:30:19.805Z,33.78
2022-07-25T22:32:21.499Z,34.26
2022-07-25T22:34:23.353Z,34.11
2022-07-25T22:36:24.934Z,33.98
2022-07-25T22:38:26.585Z,34.45
2022-07-25T22:40:28.142Z,34.12
2022-07-25T22:42:29.654Z,34.27
2022-07-25T22:44:31.440Z,33.77
2022-07-25T22:46:33.137Z,34.30
2022-07-25T22:48:34.803Z,34.10
2022-07-25T22:50:36.584Z,34.35
2022-07-25T22:52:38.143Z,34.50
2022-07-25T22:54:39.902Z,34.71
2022-07-25T22:56:41.465Z,34.35
2022-07-25T22:58:43.003Z,34.28
2022-07-25T23:00:44.667Z,34.41
2022-07-25T23:02:46.142Z,34.34
2022-07-25T23:04:47.939Z,34.94
2022-07-25T23:06:50.665Z,33.91
2022-07-25T23:08:52.904Z,34.55
2022-07-25T23:10:55.497Z,34.46
2022-07-25T23:12:57.180Z,34.31
2022-07-25T23:14:58.905Z,34.51
2022-07-25T23:17:20.240Z,34.64
2022-07-25T23:19:22.119Z,34.57
2022-07-25T23:21:27.743Z,34.84
2022-07-25T23:23:29.275Z,34.86
2022-07-25T23:25:30.905Z,35.24
2022-07-25T23:27:34.901Z,34.69
2022-07-25T23:29:37.425Z,34.90
2022-07-25T23:31:39.755Z,35.00
2022-07-25T23:33:41.474Z,35.19
2022-07-25T23:35:43.422Z,35.15
2022-07-25T23:37:45.934Z,35.37
2022-07-25T23:39:47.537Z,35.53
2022-07-25T23:41:49.182Z,35.43
2022-07-25T23:43:56.686Z,35.78
2022-07-25T23:45:59.465Z,36.02
2022-07-25T23:48:03.852Z,35.84
2022-07-25T23:50:06.084Z,35.68
2022-07-25T23:52:08.827Z,36.20
2022-07-25T23:54:10.442Z,36.02
2022-07-25T23:56:13.472Z,36.16
2022-07-25T23:58:16.621Z,35.85
